• Join FlightAware (Why Join?)
  • Login
  • US Flag 
10:23PM EDT


 

Airport Tracker/Info


-or-


 

Live Flight TrackerFlight Track Log ✈ WIG449A ✈ 19-Jun-2013 ✈ KALB - KPBG

Flight Track Log - Related Links

Times and Time Zones

All times are in EDT time to prevent confusion due to time zone crossing. See the WIG449A flight status page for this flight to view local times or setup timezone preferences in your user account.

Time Position Orientation Groundspeed Altitude Reporting Facility
EDT Latitude Longitude Course Direction KTS MPH feet Rate Location/Type
05:47PM 42.7589 -73.8058 359° North 85 98 1,000  Level Boston Center
05:47PM 42.7714 -73.8061 359° North 93 107 1,500 960 Climbing Boston Center
05:48PM 42.8050 -73.8014 North 117 135 2,600 1,020 Climbing Boston Center
05:49PM 42.8383 -73.7992 North 121 139 3,700 1,020 Climbing Boston Center
05:50PM 42.8739 -73.7886 12° North 125 144 4,700 960 Climbing Boston Center
05:51PM 42.9094 -73.7836 North 128 147 5,700 900 Climbing Boston Center
05:52PM 42.9447 -73.7761 North 122 140 6,700 600 Climbing Boston Center
05:53PM 42.9783 -73.7711 North 123 142 7,000 120 Climbing Boston Center
05:54PM 43.0242 -73.7606 10° North 145 167 7,000  Level Boston Center
05:55PM 43.0639 -73.7531 North 153 176 7,000  Level Boston Center
05:56PM 43.1056 -73.7511 North 150 173 7,000  Level Boston Center
05:58PM 43.1494 -73.7406 10° North 149 171 7,000  Level Boston Center
05:59PM 43.1933 -73.7331 North 151 174 7,000  Level Boston Center
06:00PM 43.2331 -73.7225 11° North 153 176 7,000  Level Boston Center
06:01PM 43.2728 -73.7175 North 153 176 7,000  Level Boston Center
06:02PM 43.3144 -73.7100 North 153 176 7,000  Level Boston Center
06:03PM 43.3500 -73.7019 North 148 170 7,000  Level Boston Center
06:04PM 43.3958 -73.6944 North 148 170 7,000  Level Boston Center
06:05PM 43.4397 -73.6839 10° North 148 170 7,000  Level Boston Center
06:06PM 43.4817 -73.6792 North 148 170 7,000  Level Boston Center
06:07PM 43.5233 -73.6714 North 148 170 7,000  Level Boston Center
06:08PM 43.5672 -73.6636 North 153 176 7,000  Level Boston Center
06:09PM 43.6089 -73.6558 North 153 176 7,000  Level Boston Center
06:10PM 43.6506 -73.6481 North 153 176 7,000  Level Boston Center
06:11PM 43.6967 -73.6461 North 153 176 7,000  Level Boston Center
06:12PM 43.7364 -73.6356 11° North 143 165 7,100  Climbing Boston Center
06:13PM 43.7758 -73.6275 North 143 165 7,100  Level Boston Center
06:14PM 43.8178 -73.6197 North 143 165 7,100  Level Boston Center
06:15PM 43.8594 -73.6119 North 148 170 7,100  Level Boston Center
06:16PM 43.9033 -73.6042 North 148 170 7,100 -60 Level Boston Center
06:17PM 43.9431 -73.5964 North 148 170 7,000  Descending Boston Center
06:18PM 43.9889 -73.5886 North 148 170 7,100  Climbing Boston Center
06:19PM 44.0306 -73.5808 North 148 170 7,100  Level Boston Center
06:20PM 44.0744 -73.5728 North 148 170 7,100  Level Boston Center
06:21PM 44.1203 -73.5650 North 148 170 7,100 -60 Level Boston Center
06:22PM 44.1642 -73.5572 North 148 170 7,000  Descending Boston Center
06:23PM 44.2061 -73.5492 North 153 176 7,100 -180 Climbing Boston Center
06:24PM 44.2561 -73.5386 North 158 182 6,700 -600 Descending Boston Center
06:25PM 44.3019 -73.5308 North 166 191 6,000 -660 Descending Boston Center
06:26PM 44.3378 -73.5025 29° Northeast 148 170 5,400 -600 Descending Boston Center
06:28PM 44.4076 -73.5003 North  Level FlightAware Approximate